NY/NJ Local METAR Reports

 

KNYC - NYC/Central Park, NY, USA
Distance from Hoboken: NE 4mi, 7km
Updated: 04/07/2020 8:51am
Few Clouds
Few Clouds
 Wind from varies
Wind: varies 3 mph , 6 km/h
Temperature: 54°F , 12°C
Dew Point: 30°F , -1°C
Humidity: 41%
Barometer: 30.01 inHg , 1016.3 hPa
Clouds: Few Clouds
Visibility: 10 miles , 16 km
Cloud details: Few Clouds 11000 ft
2020/04/07 12:51 KNYC 071251Z AUTO VRB03KT 10SM FEW110 12/M01 A3001 RMK AO2 SLP152 T01221011
KEWR - Newark, NJ, USA
Distance from Hoboken: WSW 8mi, 13km
Updated: 04/07/2020 8:51am
Mostly cloudy
Mostly cloudy
 Wind from WNW
Wind: WNW 6 mph , 9 km/h
Temperature: 55°F , 13°C
Dew Point: 28°F , -2°C
Humidity: 36%
Barometer: 29.99 inHg , 1015.6 hPa
Clouds: Mostly cloudy
Visibility: 10 miles , 16 km
Cloud details: Partly cloudy 11000 ft
Mostly cloudy 13000 ft
2020/04/07 12:51 KEWR 071251Z 29005KT 10SM SCT110 BKN130 13/M02 A2999 RMK AO2 SLP154 T01331017
 
KLGA - NYC/La Guardia, NY, USA
Distance from Hoboken: ENE 8mi, 13km
Updated: 04/07/2020 8:51am
Mostly cloudy
Mostly cloudy
 Wind from NW
Wind: NW 8 mph , 13 km/h
Temperature: 54°F , 12°C
Dew Point: 34°F , 1°C
Humidity: 47%
Barometer: 29.98 inHg , 1015.2 hPa
Clouds: Mostly cloudy
Visibility: 10 miles , 16 km
Cloud details: Mostly cloudy 12000 ft
2020/04/07 12:51 KLGA 071251Z 31007KT 10SM BKN120 12/01 A2998 RMK AO2 SLP152 T01220006
KTEB - Teterboro, NJ, USA
Distance from Hoboken: N 9mi, 14km
Updated: 04/07/2020 8:51am
Few Clouds
Few Clouds
 Wind from NW
Wind: NW 7 mph , 11 km/h
Temperature: 54°F , 12°C
Dew Point: 32°F , 0°C
Humidity: 44%
Barometer: 29.97 inHg , 1014.9 hPa
Clouds: Few Clouds
Visibility: 10 miles , 16 km
Cloud details: Few Clouds 11000 ft
2020/04/07 12:51 KTEB 071251Z 31006KT 10SM FEW110 12/00 A2997 RMK AO2 SLP150 T01220000
 
KJFK - NYC/Jfk Arpt, NY, USA
Distance from Hoboken: ESE 16mi, 25km
Updated: 04/07/2020 8:51am
Mostly cloudy
Mostly cloudy
 Wind from WSW
Wind: WSW 7 mph , 11 km/h
Temperature: 54°F , 12°C
Dew Point: 37°F , 3°C
Humidity: 54%
Barometer: 29.99 inHg , 1015.6 hPa
Clouds: Mostly cloudy
Visibility: 10 miles , 16 km
Cloud details: Few Clouds 7500 ft
Mostly cloudy 13000 ft
Mostly cloudy 25000 ft
2020/04/07 12:51 KJFK 071251Z 24006KT 10SM FEW075 BKN130 BKN250 12/03 A2999 RMK AO2 SLP154 T01170028
KCDW - Caldwell, NJ, USA
Distance from Hoboken: NW 16mi, 26km
Updated: 04/07/2020 8:53am
Clear
Clear
 Wind from calm
Wind: Calm
Temperature: 55°F , 13°C
Dew Point: 28°F , -2°C
Humidity: 36%
Barometer: 29.99 inHg , 1015.6 hPa
Clouds: Clear
Visibility: 10 miles , 16 km
2020/04/07 12:53 KCDW 071253Z 00000KT 10SM CLR 13/M02 A2999 RMK AO2 SLP160 T01281017
 
KMMU - Morristown Muni, NJ, USA
Distance from Hoboken: W 20mi, 33km
Updated: 04/07/2020 9:45am
Partly cloudy
Partly cloudy
 Wind from WNW
Wind: WNW 3 mph , 6 km/h
Temperature: 55°F , 13°C
Dew Point: 34°F , 1°C
Humidity: 44%
Barometer: 29.98 inHg , 1015.2 hPa
Clouds: Partly cloudy
Visibility: 10 miles , 16 km
Cloud details: Partly cloudy 13000 ft
2020/04/07 13:45 KMMU 071345Z 30003KT 10SM SCT130 13/01 A2998
KHPN - White Plains, NY, USA
Distance from Hoboken: NE 28mi, 46km
Updated: 04/07/2020 8:56am
Clear
Clear
 Wind from NW
Wind: NW 9 mph , 15 km/h
Temperature: 52°F , 11°C
Dew Point: 30°F , -1°C
Humidity: 44%
Barometer: 29.97 inHg , 1014.9 hPa
Clouds: Clear
Visibility: 10 miles , 16 km
2020/04/07 12:56 KHPN 071256Z 31008KT 10SM CLR 11/M01 A2997 RMK AO2 SLP148 T01061011 $
 
KFRG - Farmingdale, NY, USA
Distance from Hoboken: E 32mi, 52km
Updated: 04/07/2020 8:53am
Clear
Clear
 Wind from NW
Wind: NW 7 mph , 11 km/h
Temperature: 55°F , 13°C
Dew Point: 30°F , -1°C
Humidity: 38%
Barometer: 29.98 inHg , 1015.2 hPa
Clouds: Clear
Visibility: 10 miles , 16 km
2020/04/07 12:53 KFRG 071253Z AUTO 32006KT 10SM CLR 13/M01 A2998 RMK AO2 SLP152 T01331011
KSMQ - Somerville, NJ, USA
Distance from Hoboken: WSW 34mi, 55km
Updated: 04/07/2020 8:53am
Mostly cloudy
Mostly cloudy
 Wind from calm
Wind: Calm
Temperature: 52°F , 11°C
Dew Point: 34°F , 1°C
Humidity: 50%
Barometer: 29.97 inHg , 1014.9 hPa
Clouds: Mostly cloudy
Visibility: 10 miles , 16 km
Cloud details: Mostly cloudy 11000 ft
2020/04/07 12:53 KSMQ 071253Z AUTO 00000KT 10SM BKN110 11/01 A2997 RMK AO2 SLP150 T01060011
 
KBLM - Belmar/Farmdale, NJ, USA
Distance from Hoboken: S 40mi, 64km
Updated: 04/07/2020 8:56am
Mostly cloudy
Mostly cloudy
 Wind from calm
Wind: Calm
Temperature: 55°F , 13°C
Dew Point: 32°F , 0°C
Humidity: 41%
Barometer: 30.00 inHg , 1015.9 hPa
Clouds: Mostly cloudy
Visibility: 10 miles , 16 km
Cloud details: Mostly cloudy 10000 ft
2020/04/07 12:56 KBLM 071256Z AUTO 00000KT 10SM BKN100 13/00 A3000 RMK AO2 SLP159 T01330000
K12N - Andover, NJ, USA
Distance from Hoboken: WNW 41mi, 67km
Updated: 04/07/2020 8:54am

 Wind from calm
Wind: Calm
Temperature: 50°F , 10°C
Dew Point: 30°F , -1°C
Humidity: 47%
Barometer: 29.98 inHg , 1015.2 hPa
2020/04/07 12:54 K12N 071254Z AUTO 00000KT 10/M01 A2998 RMK AO1 SLP155 T01001006
 
KFWN - Sussex, NJ, USA
Distance from Hoboken: NW 45mi, 72km
Updated: 04/07/2020 8:53am
Overcast
Overcast
 Wind from calm
Wind: Calm
Temperature: 50°F , 10°C
Dew Point: 32°F , 0°C
Humidity: 50%
Barometer: 29.98 inHg , 1015.2 hPa
Clouds: Overcast
Visibility: 10 miles , 16 km
Cloud details: Overcast 12000 ft
2020/04/07 12:53 KFWN 071253Z AUTO 00000KT 10SM OVC120 10/00 A2998 RMK AO2 SLP151 T01000000
KISP - Islip, NY, USA
Distance from Hoboken: E 49mi, 79km
Updated: 04/07/2020 8:56am
Mostly cloudy
Mostly cloudy
 Wind from WNW
Wind: WNW 5 mph , 7 km/h
Temperature: 55°F , 13°C
Dew Point: 28°F , -2°C
Humidity: 36%
Barometer: 29.97 inHg , 1014.9 hPa
Clouds: Mostly cloudy
Visibility: 10 miles , 16 km
Cloud details: Partly cloudy 10000 ft
Mostly cloudy 13000 ft
2020/04/07 12:56 KISP 071256Z 30004KT 10SM SCT100 BKN130 13/M02 A2997 RMK AO2 SLP148 T01331017